createdAt,value
2019-02-14T00:01:09.880Z,4.23
2019-02-14T00:03:37.333Z,4.07
2019-02-14T00:06:04.785Z,4.63
2019-02-14T00:08:32.287Z,5.30
2019-02-14T00:10:59.785Z,4.07
2019-02-14T00:13:27.147Z,3.87
2019-02-14T00:15:54.620Z,3.87
2019-02-14T00:18:22.042Z,4.07
2019-02-14T00:20:49.488Z,4.80
2019-02-14T00:23:17.100Z,4.07
2019-02-14T00:25:44.695Z,4.17
2019-02-14T00:28:12.232Z,4.00
2019-02-14T00:30:39.597Z,4.00
2019-02-14T00:33:07.071Z,3.87
2019-02-14T00:35:34.488Z,4.10
2019-02-14T00:38:01.966Z,4.73
2019-02-14T00:40:29.493Z,4.40
2019-02-14T00:42:56.923Z,4.30
2019-02-14T00:45:24.348Z,4.07
2019-02-14T00:47:51.850Z,4.17
2019-02-14T00:50:19.381Z,4.20
2019-02-14T00:52:46.867Z,4.37
2019-02-14T00:55:14.323Z,3.97
2019-02-14T00:57:41.729Z,4.27
2019-02-14T01:00:09.957Z,4.00
2019-02-14T01:02:37.413Z,4.07
2019-02-14T01:05:05.119Z,4.20
2019-02-14T01:07:32.617Z,4.20
2019-02-14T01:10:00.293Z,4.27
2019-02-14T01:12:27.776Z,4.60
2019-02-14T01:14:55.140Z,4.30
2019-02-14T01:17:22.905Z,3.60
2019-02-14T01:19:50.603Z,4.07
2019-02-14T01:22:18.227Z,4.53
2019-02-14T01:24:45.609Z,4.57
2019-02-14T01:27:13.048Z,4.93
2019-02-14T01:29:40.522Z,4.77
2019-02-14T01:32:07.877Z,4.20
2019-02-14T01:34:35.352Z,5.13
2019-02-14T01:37:02.799Z,5.60
2019-02-14T01:39:30.258Z,4.77
2019-02-14T01:41:57.685Z,5.60
2019-02-14T01:44:25.087Z,4.90
2019-02-14T01:46:52.559Z,4.97
2019-02-14T01:49:20.207Z,5.60
2019-02-14T01:51:47.771Z,5.00
2019-02-14T01:54:15.275Z,5.00
2019-02-14T01:56:42.830Z,5.60
2019-02-14T01:59:10.289Z,6.63
2019-02-14T02:01:37.839Z,6.03
2019-02-14T02:04:05.357Z,6.70
2019-02-14T02:06:32.801Z,6.13
2019-02-14T02:09:00.236Z,6.93
2019-02-14T02:11:27.672Z,7.27
2019-02-14T02:13:55.147Z,6.23
2019-02-14T02:16:22.595Z,6.77
2019-02-14T02:18:49.976Z,7.73
2019-02-14T02:21:17.436Z,7.70
2019-02-14T02:23:44.893Z,7.87
2019-02-14T02:26:12.418Z,9.20
2019-02-14T02:28:39.803Z,8.73
2019-02-14T02:31:07.248Z,8.57
2019-02-14T02:33:34.633Z,8.70
2019-02-14T02:36:02.026Z,8.37
2019-02-14T02:38:29.611Z,8.90
2019-02-14T02:40:57.057Z,8.50
2019-02-14T02:43:24.490Z,8.13
2019-02-14T02:45:51.859Z,8.60
2019-02-14T02:48:19.313Z,8.30
2019-02-14T02:50:46.864Z,8.60
2019-02-14T02:53:14.265Z,9.40
2019-02-14T02:55:41.726Z,7.90
2019-02-14T02:58:09.239Z,9.40
2019-02-14T03:00:36.658Z,8.87
2019-02-14T03:03:04.190Z,10.07
2019-02-14T03:05:31.745Z,9.67
2019-02-14T03:07:59.315Z,9.93
2019-02-14T03:10:26.843Z,9.97
2019-02-14T03:12:54.320Z,9.93
2019-02-14T03:15:21.830Z,9.67
2019-02-14T03:17:49.243Z,9.87
2019-02-14T03:20:16.710Z,10.77
2019-02-14T03:22:44.151Z,10.20
2019-02-14T03:25:13.818Z,11.13
2019-02-14T03:27:41.272Z,10.53
2019-02-14T03:30:09.381Z,10.03
2019-02-14T03:32:36.748Z,11.17
2019-02-14T03:35:04.514Z,9.90
2019-02-14T03:37:31.945Z,11.60
2019-02-14T03:39:59.334Z,10.80
2019-02-14T03:42:26.761Z,10.47
2019-02-14T03:44:54.174Z,11.03
2019-02-14T03:47:21.608Z,10.20
2019-02-14T03:49:49.037Z,10.10
2019-02-14T03:52:16.770Z,9.90
2019-02-14T03:54:44.364Z,10.43
2019-02-14T03:57:11.789Z,9.40
2019-02-14T03:59:39.234Z,10.73
2019-02-14T04:02:07.018Z,10.30
2019-02-14T04:04:34.519Z,10.30
2019-02-14T04:07:01.956Z,10.47
2019-02-14T04:09:29.549Z,11.07
2019-02-14T04:11:56.958Z,9.80
2019-02-14T04:14:24.886Z,10.13
2019-02-14T04:16:52.333Z,10.37
2019-02-14T04:19:19.926Z,10.33
2019-02-14T04:21:47.388Z,10.57
2019-02-14T04:24:14.857Z,10.07
2019-02-14T04:26:42.309Z,10.97
2019-02-14T04:29:09.691Z,10.23
2019-02-14T04:31:37.159Z,11.30
2019-02-14T04:34:04.882Z,9.77
2019-02-14T04:36:36.050Z,11.17
2019-02-14T04:39:01.635Z,10.33
2019-02-14T04:41:29.025Z,11.10
2019-02-14T04:43:56.516Z,11.07
2019-02-14T04:46:23.991Z,10.10
2019-02-14T04:48:51.475Z,11.67
2019-02-14T04:51:18.948Z,11.93
2019-02-14T04:53:46.557Z,11.53
2019-02-14T04:56:14.043Z,11.13
2019-02-14T04:58:41.421Z,10.37
2019-02-14T05:01:08.977Z,11.10
2019-02-14T05:03:36.708Z,10.67
2019-02-14T05:06:04.282Z,11.07
2019-02-14T05:08:31.732Z,11.30
2019-02-14T05:10:59.248Z,11.70
2019-02-14T05:13:26.760Z,9.70
2019-02-14T05:15:54.126Z,10.83
2019-02-14T05:18:21.587Z,10.57
2019-02-14T05:20:49.064Z,11.57
2019-02-14T05:23:16.515Z,11.07
2019-02-14T05:25:43.949Z,9.43
2019-02-14T05:28:11.323Z,10.03
2019-02-14T05:30:38.796Z,10.80
2019-02-14T05:33:06.234Z,10.60
2019-02-14T05:35:33.671Z,11.67
2019-02-14T05:38:01.068Z,11.20
2019-02-14T05:40:28.507Z,11.40
2019-02-14T05:42:55.944Z,10.43
2019-02-14T05:45:23.418Z,11.63
2019-02-14T05:47:50.785Z,11.60
2019-02-14T05:50:18.352Z,10.63
2019-02-14T05:52:45.805Z,10.27
2019-02-14T05:55:13.340Z,10.97
2019-02-14T05:57:41.070Z,11.30
2019-02-14T06:00:10.586Z,11.60
2019-02-14T06:02:38.182Z,9.83
2019-02-14T06:05:05.825Z,10.57
2019-02-14T06:07:33.210Z,10.37
2019-02-14T06:10:00.649Z,10.57
2019-02-14T06:12:28.294Z,9.90
2019-02-14T06:14:55.731Z,12.00
2019-02-14T06:17:23.213Z,10.33
2019-02-14T06:19:50.648Z,10.47
2019-02-14T06:22:18.350Z,10.23
2019-02-14T06:24:45.856Z,11.10
2019-02-14T06:27:13.331Z,10.30
2019-02-14T06:29:40.776Z,11.73
2019-02-14T06:32:08.218Z,11.30
2019-02-14T06:34:35.656Z,10.13
2019-02-14T06:37:09.457Z,11.60
2019-02-14T06:39:32.411Z,10.10
2019-02-14T06:41:59.920Z,11.67
2019-02-14T06:44:27.380Z,10.10
2019-02-14T06:46:54.764Z,9.87
2019-02-14T06:49:22.568Z,10.73
2019-02-14T06:51:50.095Z,10.20
2019-02-14T06:54:17.495Z,10.93
2019-02-14T06:56:45.069Z,10.60
2019-02-14T06:59:12.631Z,10.90
2019-02-14T07:01:40.106Z,11.30
2019-02-14T07:04:07.570Z,10.77
2019-02-14T07:06:35.083Z,10.20
2019-02-14T07:09:04.454Z,9.97
2019-02-14T07:11:31.954Z,9.53
2019-02-14T07:13:59.417Z,10.27
2019-02-14T07:16:26.868Z,11.73
2019-02-14T07:18:54.293Z,10.10
2019-02-14T07:21:21.907Z,10.37
2019-02-14T07:23:49.259Z,11.23
2019-02-14T07:26:16.705Z,10.37
2019-02-14T07:28:44.138Z,10.80
2019-02-14T07:31:11.579Z,10.77
2019-02-14T07:33:39.004Z,10.80
2019-02-14T07:36:06.384Z,11.60
2019-02-14T07:38:33.833Z,11.13
2019-02-14T07:41:01.243Z,10.60
2019-02-14T07:43:28.781Z,10.53
2019-02-14T07:45:56.218Z,11.20
2019-02-14T07:48:23.656Z,11.00
2019-02-14T07:50:51.108Z,11.20
2019-02-14T07:53:18.512Z,10.07
2019-02-14T07:55:46.093Z,10.80
2019-02-14T07:58:13.670Z,11.20
2019-02-14T08:00:41.140Z,9.73
2019-02-14T08:03:08.575Z,10.27
2019-02-14T08:05:35.987Z,10.50
2019-02-14T08:08:03.348Z,9.50
2019-02-14T08:10:30.799Z,9.33
2019-02-14T08:12:58.257Z,9.67
2019-02-14T08:15:25.676Z,9.63
2019-02-14T08:17:53.118Z,9.70
2019-02-14T08:20:20.761Z,9.30
2019-02-14T08:22:48.201Z,9.13
2019-02-14T08:25:15.650Z,8.63
2019-02-14T08:27:43.082Z,8.63
2019-02-14T08:30:12.420Z,8.60
2019-02-14T08:32:39.965Z,9.13
2019-02-14T08:35:07.722Z,9.23
2019-02-14T08:37:35.190Z,8.20
2019-02-14T08:40:02.702Z,7.77
2019-02-14T08:42:30.129Z,8.47
2019-02-14T08:44:57.590Z,12.50
2019-02-14T08:47:24.992Z,9.37
2019-02-14T08:49:52.452Z,6.60
2019-02-14T08:52:19.915Z,7.77
2019-02-14T08:54:47.386Z,7.73
2019-02-14T08:57:14.765Z,7.43
2019-02-14T08:59:42.337Z,8.17
2019-02-14T09:02:09.896Z,7.67
2019-02-14T09:04:37.287Z,7.53
2019-02-14T09:07:04.737Z,8.30
2019-02-14T09:09:32.165Z,8.70
2019-02-14T09:12:00.144Z,9.83
2019-02-14T09:14:27.552Z,9.67
2019-02-14T09:16:55.012Z,9.10
2019-02-14T09:19:22.501Z,8.30
2019-02-14T09:21:49.916Z,8.73
2019-02-14T09:24:17.306Z,8.50
2019-02-14T09:26:44.741Z,7.57
2019-02-14T09:29:14.316Z,8.20
2019-02-14T09:31:41.480Z,9.43
2019-02-14T09:34:08.907Z,8.03
2019-02-14T09:36:36.351Z,7.40
2019-02-14T09:39:05.139Z,10.73
2019-02-14T09:41:32.569Z,7.47
2019-02-14T09:44:00.093Z,7.50
2019-02-14T09:46:27.550Z,6.77
2019-02-14T09:48:55.007Z,7.53
2019-02-14T09:51:22.387Z,7.30
2019-02-14T09:53:49.856Z,6.20
2019-02-14T09:56:17.294Z,6.27
2019-02-14T09:58:44.720Z,7.23
2019-02-14T10:01:12.284Z,9.07
2019-02-14T10:03:39.828Z,8.20
2019-02-14T10:06:07.350Z,8.70
2019-02-14T10:08:34.827Z,8.00
2019-02-14T10:11:02.290Z,6.10
2019-02-14T10:13:29.923Z,7.83
2019-02-14T10:15:57.342Z,6.77
2019-02-14T10:18:24.719Z,8.33
2019-02-14T10:20:52.163Z,7.60
2019-02-14T10:23:19.586Z,6.30
2019-02-14T10:25:47.019Z,6.50
2019-02-14T10:28:14.448Z,8.17
2019-02-14T10:30:41.863Z,7.00
2019-02-14T10:33:09.266Z,6.17
2019-02-14T10:35:36.686Z,6.77
2019-02-14T10:38:04.161Z,6.00
2019-02-14T10:40:31.733Z,5.70
2019-02-14T10:42:59.106Z,6.70
2019-02-14T10:45:26.619Z,5.83
2019-02-14T10:47:54.127Z,8.13
2019-02-14T10:50:21.501Z,5.17
2019-02-14T10:52:49.005Z,18.20
2019-02-14T10:55:16.547Z,11.63
2019-02-14T10:57:44.099Z,5.03
2019-02-14T11:00:17.622Z,6.60
2019-02-14T11:02:46.073Z,5.77
2019-02-14T11:05:14.520Z,5.63
2019-02-14T11:07:42.009Z,6.80
2019-02-14T11:10:10.088Z,6.50
2019-02-14T11:12:37.648Z,5.23
2019-02-14T11:15:05.684Z,9.17
2019-02-14T11:17:33.071Z,7.17
2019-02-14T11:20:00.484Z,6.27
2019-02-14T11:22:27.909Z,6.23
2019-02-14T11:24:55.458Z,5.67
2019-02-14T11:27:22.879Z,6.33
2019-02-14T11:29:50.314Z,6.30
2019-02-14T11:32:17.747Z,5.70
2019-02-14T11:34:45.128Z,5.90
2019-02-14T11:37:12.573Z,6.03
2019-02-14T11:39:40.000Z,5.40
2019-02-14T11:42:07.365Z,5.97
2019-02-14T11:44:39.847Z,5.13
2019-02-14T11:47:04.147Z,7.47
2019-02-14T11:49:31.583Z,7.17
2019-02-14T11:51:58.955Z,7.57
2019-02-14T11:54:26.532Z,7.07
2019-02-14T11:56:54.036Z,5.73
2019-02-14T11:59:21.388Z,6.93
2019-02-14T12:01:55.237Z,4.77
2019-02-14T12:04:18.312Z,7.07
2019-02-14T12:06:45.775Z,8.40
2019-02-14T12:09:13.363Z,8.90
2019-02-14T12:11:40.800Z,5.90
2019-02-14T12:14:08.228Z,7.97
2019-02-14T12:16:35.633Z,6.80
2019-02-14T12:19:03.159Z,9.30
2019-02-14T12:21:30.584Z,7.10
2019-02-14T12:23:57.938Z,6.77
2019-02-14T12:26:25.439Z,7.80
2019-02-14T12:28:53.003Z,8.03
2019-02-14T12:31:20.401Z,8.03
2019-02-14T12:33:47.847Z,7.07
2019-02-14T12:36:15.328Z,8.00
2019-02-14T12:38:42.780Z,9.80
2019-02-14T12:41:10.208Z,8.63
2019-02-14T12:43:37.585Z,8.90
2019-02-14T12:46:05.019Z,7.43
2019-02-14T12:48:32.466Z,7.23
2019-02-14T12:50:59.886Z,6.10
2019-02-14T12:53:27.317Z,5.97
2019-02-14T12:55:54.763Z,7.47
2019-02-14T12:58:22.151Z,6.73
2019-02-14T13:00:49.602Z,7.53
2019-02-14T13:03:17.051Z,6.53
2019-02-14T13:05:44.559Z,6.87
2019-02-14T13:08:12.080Z,6.83
2019-02-14T13:10:39.565Z,7.43
2019-02-14T13:13:07.047Z,7.97
2019-02-14T13:15:34.510Z,8.07
2019-02-14T13:18:02.021Z,8.63
2019-02-14T13:20:29.453Z,8.20
2019-02-14T13:22:56.907Z,8.87
2019-02-14T13:25:24.342Z,7.23
2019-02-14T13:27:51.821Z,7.50
2019-02-14T13:30:20.824Z,7.83
2019-02-14T13:32:48.291Z,8.40
2019-02-14T13:35:15.738Z,8.50
2019-02-14T13:37:43.160Z,9.30
2019-02-14T13:40:10.595Z,8.43
2019-02-14T13:42:38.063Z,8.43
2019-02-14T13:45:08.109Z,15.53
2019-02-14T13:47:35.495Z,10.10
2019-02-14T13:50:03.009Z,10.27
2019-02-14T13:52:30.453Z,9.00
2019-02-14T13:54:57.813Z,9.43
2019-02-14T13:57:25.242Z,10.37
2019-02-14T13:59:52.709Z,10.27
2019-02-14T14:02:20.133Z,10.03
2019-02-14T14:04:47.594Z,11.23
2019-02-14T14:07:15.184Z,10.77
2019-02-14T14:09:42.580Z,10.47
2019-02-14T14:12:10.029Z,10.43
2019-02-14T14:14:37.488Z,9.97
2019-02-14T14:17:04.900Z,10.23
2019-02-14T14:19:32.421Z,10.23
2019-02-14T14:21:59.899Z,13.17
2019-02-14T14:24:27.278Z,11.47
2019-02-14T14:26:54.766Z,11.77
2019-02-14T14:29:22.181Z,11.07
2019-02-14T14:31:49.625Z,11.33
2019-02-14T14:34:17.050Z,10.93
2019-02-14T14:36:44.442Z,10.70
2019-02-14T14:39:11.851Z,12.23
2019-02-14T14:41:39.287Z,10.60
2019-02-14T14:44:33.103Z,12.70
2019-02-14T14:47:08.883Z,11.27
2019-02-14T14:49:36.340Z,10.57
2019-02-14T14:52:03.782Z,10.63
2019-02-14T14:54:31.144Z,13.20
2019-02-14T14:56:58.602Z,11.03
2019-02-14T14:59:26.047Z,12.73
2019-02-14T15:01:53.573Z,13.47
2019-02-14T15:04:21.023Z,11.90
2019-02-14T15:06:48.439Z,12.03
2019-02-14T15:09:15.977Z,12.57
2019-02-14T15:11:43.379Z,12.57
2019-02-14T15:14:10.920Z,13.87
2019-02-14T15:16:38.334Z,10.73
2019-02-14T15:19:05.776Z,11.37
2019-02-14T15:21:33.160Z,12.30
2019-02-14T15:24:00.602Z,11.17
2019-02-14T15:26:28.042Z,10.37
2019-02-14T15:28:55.509Z,11.47
2019-02-14T15:31:22.867Z,11.13
2019-02-14T15:33:50.320Z,11.07
2019-02-14T15:36:17.750Z,12.03
2019-02-14T15:38:45.156Z,12.17
2019-02-14T15:41:12.617Z,11.57
2019-02-14T15:43:40.047Z,13.83
2019-02-14T15:46:07.478Z,11.80
2019-02-14T15:48:34.850Z,10.93
2019-02-14T15:51:02.305Z,13.93
2019-02-14T15:53:29.759Z,12.97
2019-02-14T15:55:57.186Z,12.57
2019-02-14T15:58:24.619Z,13.63
2019-02-14T16:00:53.997Z,12.73
2019-02-14T16:03:21.418Z,12.43
2019-02-14T16:05:48.771Z,12.37
2019-02-14T16:08:16.199Z,11.30
2019-02-14T16:10:43.801Z,12.23
2019-02-14T16:13:11.325Z,14.30
2019-02-14T16:15:38.797Z,11.57
2019-02-14T16:18:06.132Z,13.50
2019-02-14T16:20:33.598Z,14.00
2019-02-14T16:23:01.057Z,12.50
2019-02-14T16:25:30.196Z,13.57
2019-02-14T16:27:57.795Z,14.43
2019-02-14T16:30:25.277Z,14.47
2019-02-14T16:32:52.744Z,12.07
2019-02-14T16:35:20.128Z,14.20
2019-02-14T16:37:48.728Z,14.87
2019-02-14T16:40:16.967Z,14.50
2019-02-14T16:42:44.474Z,15.63
2019-02-14T16:45:11.972Z,15.50
2019-02-14T16:47:39.369Z,15.37
2019-02-14T16:50:07.158Z,14.17
2019-02-14T16:52:34.610Z,15.17
2019-02-14T16:55:02.051Z,15.57
2019-02-14T16:57:29.512Z,14.43
2019-02-14T16:59:56.961Z,16.63
2019-02-14T17:02:24.404Z,15.10
2019-02-14T17:04:51.812Z,14.33
2019-02-14T17:07:19.234Z,14.13
2019-02-14T17:09:46.764Z,13.03
2019-02-14T17:12:14.345Z,14.37
2019-02-14T17:14:41.766Z,14.03
2019-02-14T17:17:09.216Z,16.67
2019-02-14T17:19:36.691Z,15.27
2019-02-14T17:22:04.178Z,15.83
2019-02-14T17:24:31.633Z,16.30
2019-02-14T17:26:59.148Z,15.07
2019-02-14T17:29:26.505Z,16.03
2019-02-14T17:31:53.988Z,15.63
2019-02-14T17:34:21.430Z,16.40
2019-02-14T17:36:48.990Z,15.77
2019-02-14T17:39:16.446Z,16.97
2019-02-14T17:41:43.843Z,20.83
2019-02-14T17:44:11.274Z,19.10
2019-02-14T17:46:38.717Z,16.93
2019-02-14T17:49:06.091Z,15.83
2019-02-14T17:51:33.549Z,17.53
2019-02-14T17:54:01.832Z,17.67
2019-02-14T17:56:29.339Z,16.30
2019-02-14T17:58:56.765Z,16.50
2019-02-14T18:01:24.326Z,23.07
2019-02-14T18:03:51.780Z,21.87
2019-02-14T18:06:19.156Z,17.53
2019-02-14T18:08:46.596Z,16.03
2019-02-14T18:11:14.045Z,16.53
2019-02-14T18:13:41.683Z,18.23
2019-02-14T18:16:09.187Z,18.53
2019-02-14T18:18:36.681Z,17.57
2019-02-14T18:21:04.062Z,18.33
2019-02-14T18:23:31.527Z,18.23
2019-02-14T18:25:58.944Z,19.30
2019-02-14T18:28:26.416Z,20.03
2019-02-14T18:30:53.854Z,18.17
2019-02-14T18:33:21.458Z,18.63
2019-02-14T18:35:48.942Z,19.20
2019-02-14T18:38:16.426Z,18.80
2019-02-14T18:40:43.812Z,19.03
2019-02-14T18:43:11.310Z,18.73
2019-02-14T18:45:38.717Z,20.00
2019-02-14T18:48:06.118Z,20.40
2019-02-14T18:50:33.582Z,20.07
2019-02-14T18:53:01.035Z,18.67
2019-02-14T18:55:28.443Z,18.17
2019-02-14T18:57:55.887Z,18.57
2019-02-14T19:00:23.391Z,16.80
2019-02-14T19:02:50.823Z,24.07
2019-02-14T19:05:18.311Z,17.73
2019-02-14T19:07:45.731Z,17.20
2019-02-14T19:10:13.332Z,18.33
2019-02-14T19:12:40.859Z,19.20
2019-02-14T19:15:09.913Z,20.10
2019-02-14T19:17:37.458Z,18.27
2019-02-14T19:20:05.647Z,18.33
2019-02-14T19:22:33.205Z,18.20
2019-02-14T19:25:00.690Z,18.70
2019-02-14T19:27:28.096Z,18.80
2019-02-14T19:29:56.363Z,19.87
2019-02-14T19:32:23.922Z,20.97
2019-02-14T19:34:52.395Z,21.10
2019-02-14T19:37:20.016Z,22.50
2019-02-14T19:39:47.651Z,15.37
2019-02-14T19:42:15.116Z,17.50
2019-02-14T19:44:43.038Z,19.07
2019-02-14T19:47:10.506Z,18.03
2019-02-14T19:49:37.990Z,16.73
2019-02-14T19:52:05.410Z,18.83
2019-02-14T19:54:32.935Z,17.43
2019-02-14T19:57:00.303Z,17.90
2019-02-14T19:59:27.755Z,17.00
2019-02-14T20:01:55.171Z,16.93
2019-02-14T20:04:22.991Z,18.23
2019-02-14T20:06:50.461Z,17.70
2019-02-14T20:09:19.448Z,17.53
2019-02-14T20:11:46.915Z,19.07
2019-02-14T20:14:14.370Z,17.83
2019-02-14T20:16:42.016Z,20.17
2019-02-14T20:19:09.627Z,20.30
2019-02-14T20:21:38.718Z,19.90
2019-02-14T20:24:06.170Z,20.13
2019-02-14T20:26:33.677Z,19.60
2019-02-14T20:29:01.155Z,18.73
2019-02-14T20:31:28.647Z,20.07
2019-02-14T20:33:56.217Z,21.00
2019-02-14T20:36:23.884Z,20.43
2019-02-14T20:38:51.887Z,20.03
2019-02-14T20:41:19.374Z,20.63
2019-02-14T20:43:46.839Z,20.67
2019-02-14T20:46:14.217Z,21.17
2019-02-14T20:48:41.678Z,20.13
2019-02-14T20:51:09.213Z,21.27
2019-02-14T20:53:36.639Z,20.67
2019-02-14T20:56:04.127Z,19.80
2019-02-14T20:58:31.689Z,18.53
2019-02-14T21:00:59.959Z,19.30
2019-02-14T21:03:27.319Z,20.87
2019-02-14T21:05:54.754Z,20.73
2019-02-14T21:08:22.199Z,20.63
2019-02-14T21:10:49.593Z,18.47
2019-02-14T21:13:17.031Z,20.57
2019-02-14T21:15:44.973Z,21.00
2019-02-14T21:18:12.601Z,19.30
2019-02-14T21:20:40.242Z,21.37
2019-02-14T21:23:07.716Z,20.33
2019-02-14T21:25:35.101Z,20.83
2019-02-14T21:28:02.692Z,19.57
2019-02-14T21:30:35.118Z,21.77
2019-02-14T21:33:00.468Z,20.00
2019-02-14T21:35:27.829Z,20.80
2019-02-14T21:37:55.252Z,19.33
2019-02-14T21:40:22.676Z,19.17
2019-02-14T21:42:50.160Z,18.70
2019-02-14T21:45:17.589Z,19.63
2019-02-14T21:47:45.065Z,17.23
2019-02-14T21:50:12.779Z,18.80
2019-02-14T21:52:40.281Z,20.00
2019-02-14T21:55:08.616Z,19.07
2019-02-14T21:57:36.059Z,17.53
2019-02-14T22:00:04.975Z,17.87
2019-02-14T22:02:32.430Z,18.37
2019-02-14T22:04:59.892Z,17.97
2019-02-14T22:07:27.301Z,16.70
2019-02-14T22:09:54.730Z,18.13
2019-02-14T22:12:38.913Z,18.43
2019-02-14T22:14:51.543Z,16.53
2019-02-14T22:17:19.083Z,17.33
2019-02-14T22:19:46.627Z,17.60
2019-02-14T22:22:14.000Z,17.97
2019-02-14T22:24:41.540Z,16.60
2019-02-14T22:27:08.970Z,18.40
2019-02-14T22:29:36.365Z,16.87
2019-02-14T22:32:03.821Z,18.10
2019-02-14T22:34:31.268Z,18.00
2019-02-14T22:36:58.689Z,16.67
2019-02-14T22:39:26.479Z,18.37
2019-02-14T22:41:53.977Z,18.40
2019-02-14T22:44:21.410Z,18.10
2019-02-14T22:46:48.833Z,20.37
2019-02-14T22:49:16.282Z,20.40
2019-02-14T22:51:43.699Z,19.60
2019-02-14T22:54:11.085Z,21.10
2019-02-14T22:56:38.524Z,20.50
2019-02-14T22:59:05.964Z,20.30
2019-02-14T23:01:33.459Z,18.60
2019-02-14T23:04:00.921Z,19.63
2019-02-14T23:06:29.369Z,19.30
2019-02-14T23:08:57.061Z,18.53
2019-02-14T23:11:24.487Z,18.67
2019-02-14T23:13:51.937Z,18.50
2019-02-14T23:16:19.406Z,18.67
2019-02-14T23:18:46.863Z,17.53
2019-02-14T23:21:14.405Z,18.60
2019-02-14T23:23:41.899Z,18.83
2019-02-14T23:26:09.332Z,17.87
2019-02-14T23:28:36.774Z,18.63
2019-02-14T23:31:04.247Z,19.07
2019-02-14T23:33:31.663Z,18.17
2019-02-14T23:35:59.094Z,18.47
2019-02-14T23:38:26.488Z,18.67
2019-02-14T23:40:53.912Z,17.47
2019-02-14T23:43:21.385Z,18.47
2019-02-14T23:45:48.769Z,17.57
2019-02-14T23:48:16.244Z,18.50
2019-02-14T23:50:43.641Z,17.80
2019-02-14T23:53:11.075Z,19.73
2019-02-14T23:55:38.507Z,18.47
2019-02-14T23:58:06.032Z,19.23
